Time;durP1;ratioP1;P1;durP2;ratioP2;P2;SDS_P1;SDS_P2;PMS_P1;PMS_P2;Temp;Humidity;BMP_temperature;BMP_pressure;BME280_temperature;BME280_humidity;BME280_pressure;Samples;Min_cycle;Max_cycle;Signal;HPM_P1;HPM_P2
2022/01/09 00:00:35;;;;;;;;;;;;;;;;;;;;;
2022/01/09 00:03:02;;;;;;;;;;;;;;;;;;5036691;28;19919;-68
2022/01/09 00:05:38;;;;;;;;;;;;;;;;;;;;;
2022/01/09 00:08:06;;;;;;;;;;;;;;;;;;5032595;28;19985;-69
2022/01/09 00:10:45;;;;;;;;;;;;;;;;;;5039745;28;19917;-68
2022/01/09 00:13:15;;;;;;;;;;;;;;;;;;5024477;28;19924;-68
2022/01/09 00:15:44;;;;;;;;;;;;;;;;;;5029281;28;19931;-68
2022/01/09 00:18:21;;;;;;;;;;;;;;;;;;5043952;28;19909;-68
2022/01/09 00:20:48;;;;;;;;;;;;;;;;;;5042022;28;19928;-68
2022/01/09 00:23:17;;;;;;;;;;;;;;;;;;5027216;28;19937;-68
2022/01/09 00:25:47;;;;;;;;;;;;;;;;;;5036113;28;19917;-69
2022/01/09 00:28:13;;;;;;;;;;;;;;;;;;5046633;28;19921;-69
2022/01/09 00:30:43;;;;;;;;;;;;;;;;;;5048057;28;19935;-68
2022/01/09 00:33:09;;;;;;;;;;;;;;;;;;5028128;28;19964;-69
2022/01/09 00:35:38;;;;;;;;;;;;;;;;;;5032651;28;19920;-69
2022/01/09 00:38:05;;;;;;;;;;;;;;;;;;5045942;28;19913;-68
2022/01/09 00:40:34;;;;;;;;;;;;;;;;;;5045533;28;19969;-68
2022/01/09 00:43:04;;;;;;;;;;;;;;;;;;5045349;28;19913;-68
2022/01/09 00:45:30;;;;;;;;;;;;;;;;;;5038248;28;20036;-69
2022/01/09 00:47:57;;;;;;;;;;;;;;;;;;5042636;28;19940;-68
2022/01/09 00:50:23;;;;;;;;;;;;;;;;;;5047539;28;19957;-69
2022/01/09 00:52:55;;;;;;;;;;;;;;;;;;5041784;28;19919;-68
2022/01/09 00:55:25;;;;;;;;;;;;;;;;;;5039809;28;19914;-69
2022/01/09 00:57:51;;;;;;;;;;;;;;;;;;5032388;28;19913;-68
2022/01/09 01:00:21;;;;;;;;;;;;;;;;;;5028203;28;19925;-68
2022/01/09 01:02:48;;;;;;;;;;;;;;;;;;5038725;28;19916;-68
2022/01/09 01:05:17;;;;;;;;;;;;;;;;;;5044283;28;19917;-69
2022/01/09 01:07:43;;;;;;;;;;;;;;;;;;5035615;28;20611;-68
2022/01/09 01:10:10;;;;;;;;;;;;;;;;;;5026967;28;19918;-69
2022/01/09 01:12:36;;;;;;;;;;;;;;;;;;5027311;28;19913;-68
2022/01/09 01:15:08;;;;;;;;;;;;;;;;;;5036466;28;19921;-69
2022/01/09 01:17:36;;;;;;;;;;;;;;;;;;5045917;28;20223;-69
2022/01/09 01:20:05;;;;;;;;;;;;;;;;;;5046448;28;19912;-68
2022/01/09 01:22:32;;;;;;;;;;;;;;;;;;5041518;28;19966;-69
2022/01/09 01:25:05;;;;;;;;;;;;;;;;;;5027305;28;19951;-68
2022/01/09 01:27:34;;;;;;;;;;;;;;;;;;5027085;28;19995;-68
2022/01/09 01:30:03;;;;;;;;;;;;;;;;;;5026651;28;19909;-68
2022/01/09 01:32:30;;;;;;;;;;;;;;;;;;5037401;28;19966;-69
2022/01/09 01:35:02;;;;;;;;;;;;;;;;;;5047015;28;19958;-69
2022/01/09 01:37:29;;;;;;;;;;;;;;;;;;5045560;28;19917;-68
2022/01/09 01:39:56;;;;;;;;;;;;;;;;;;5044305;28;19909;-69
2022/01/09 01:42:22;;;;;;;;;;;;;;;;;;5038419;28;19971;-69
2022/01/09 01:44:49;;;;;;;;;;;;;;;;;;5026599;28;20714;-68
2022/01/09 01:47:15;;;;;;;;;;;;;;;;;;5028720;28;19925;-67
2022/01/09 01:49:42;;;;;;;;;;;;;;;;;;5031576;28;20498;-68
2022/01/09 01:52:11;;;;;;;;;;;;;;;;;;5026544;28;20003;-69
2022/01/09 01:54:42;;;;;;;;;;;;;;;;;;5046395;28;19912;-68
2022/01/09 01:57:09;;;;;;;;;;;;;;;;;;5045007;28;19916;-69
2022/01/09 01:59:41;;;;;;;;;;;;;;;;;;5026481;28;20370;-68
2022/01/09 02:02:08;;;;;;;;;;;;;;;;;;5029504;28;20439;-68
2022/01/09 02:04:37;;;;;;;;;;;;;;;;;;5045813;28;19912;-68
2022/01/09 02:07:07;;;;;;;;;;;;;;;;;;5030811;28;19917;-68
2022/01/09 02:09:36;;;;;;;;;;;;;;;;;;5026562;28;20433;-68
2022/01/09 02:12:03;;;;;;;;;;;;;;;;;;5044292;28;19924;-68
2022/01/09 02:14:30;;;;;;;;;;;;;;;;;;5036884;28;19932;-68
2022/01/09 02:16:56;;;;;;;;;;;;;;;;;;5026664;28;20235;-68
2022/01/09 02:19:22;;;;;;;;;;;;;;;;;;5041188;28;20369;-68
2022/01/09 02:21:49;;;;;;;;;;;;;;;;;;5044446;28;20357;-68
2022/01/09 02:24:25;;;;;;;;;;;;;;;;;;5039905;28;19912;-69
2022/01/09 02:26:54;;;;;;;;;;;;;;;;;;5041105;28;20418;-68
2022/01/09 02:29:21;;;;;;;;;;;;;;;;;;5025871;28;19917;-69
2022/01/09 02:31:47;;;;;;;;;;;;;;;;;;5026339;28;19945;-68
2022/01/09 02:34:14;;;;;;;;;;;;;;;;;;5043991;28;20342;-68
2022/01/09 02:36:40;;;;;;;;;;;;;;;;;;5034655;28;20043;-69
2022/01/09 02:39:06;;;;;;;;;;;;;;;;;;5027385;28;19948;-68
2022/01/09 02:41:33;;;;;;;;;;;;;;;;;;5042523;28;19925;-68
2022/01/09 02:44:06;;;;;;;;;;;;;;;;;;5044164;28;20289;-68
2022/01/09 02:49:18;;;;;;;;;;;;;;;;;;5032780;28;20062;-68
2022/01/09 02:51:48;;;;;;;;;;;;;;;;;;5025157;28;19941;-68
2022/01/09 02:57:01;;;;;;;;;;;;;;;;;;5036028;28;20011;-68
2022/01/09 02:59:29;;;;;;;;;;;;;;;;;;5035445;28;20007;-69
2022/01/09 03:01:59;;;;;;;;;;;;;;;;;;5037816;28;19936;-68
2022/01/09 03:04:25;;;;;;;;;;;;;;;;;;5026644;28;19999;-68
2022/01/09 03:06:52;;;;;;;;;;;;;;;;;;5025454;28;20246;-68
2022/01/09 03:09:18;;;;;;;;;;;;;;;;;;5025563;28;20244;-68
2022/01/09 03:11:47;;;;;;;;;;;;;;;;;;5025192;28;20309;-68
2022/01/09 03:14:25;;;;;;;;;;;;;;;;;;5034268;28;19925;-68
2022/01/09 03:16:52;;;;;;;;;;;;;;;;;;5045393;28;20007;-68
2022/01/09 03:19:22;;;;;;;;;;;;;;;;;;5043869;28;19965;-68
2022/01/09 03:21:49;;;;;;;;;;;;;;;;;;5042618;28;20669;-68
2022/01/09 03:24:15;;;;;;;;;;;;;;;;;;5030816;28;20016;-68
2022/01/09 03:26:43;;;;;;;;;;;;;;;;;;5044807;28;19990;-69
2022/01/09 03:29:09;;;;;;;;;;;;;;;;;;5043756;28;20037;-68
2022/01/09 03:31:38;;;;;;;;;;;;;;;;;;5035014;28;19936;-68
2022/01/09 03:34:08;;;;;;;;;;;;;;;;;;5024464;28;19917;-69
2022/01/09 03:36:34;;;;;;;;;;;;;;;;;;5025110;28;19952;-68
2022/01/09 03:39:10;;;;;;;;;;;;;;;;;;5026758;28;19959;-69
2022/01/09 03:41:39;;;;;;;;;;;;;;;;;;5042348;28;19920;-68
2022/01/09 03:44:08;;;;;;;;;;;;;;;;;;5026506;28;20353;-69
2022/01/09 03:46:40;;;;;;;;;;;;;;;;;;5044927;28;19932;-69
2022/01/09 03:49:08;;;;;;;;;;;;;;;;;;5027737;28;19913;-68
2022/01/09 03:51:37;;;;;;;;;;;;;;;;;;5043958;28;19913;-70
2022/01/09 03:54:04;;;;;;;;;;;;;;;;;;5025491;28;19913;-68
2022/01/09 03:56:33;;;;;;;;;;;;;;;;;;5044501;28;20355;-68
2022/01/09 03:59:02;;;;;;;;;;;;;;;;;;5044818;28;19913;-68
2022/01/09 04:01:29;;;;;;;;;;;;;;;;;;5028829;28;19925;-69
2022/01/09 04:04:04;;;;;;;;;;;;;;;;;;5042342;28;19913;-68
2022/01/09 04:06:31;;;;;;;;;;;;;;;;;;5027109;28;19963;-69
2022/01/09 04:09:06;;;;;;;;;;;;;;;;;;5039042;28;19913;-68
2022/01/09 04:11:36;;;;;;;;;;;;;;;;;;5028096;28;19966;-68
2022/01/09 04:14:03;;;;;;;;;;;;;;;;;;5027974;28;20347;-68
2022/01/09 04:16:38;;;;;;;;;;;;;;;;;;5035795;28;19950;-68
2022/01/09 04:19:05;;;;;;;;;;;;;;;;;;5027307;28;20651;-69
2022/01/09 04:21:34;;;;;;;;;;;;;;;;;;5029090;28;19951;-68
2022/01/09 04:24:01;;;;;;;;;;;;;;;;;;5027990;28;20057;-68
2022/01/09 04:26:27;;;;;;;;;;;;;;;;;;5039602;28;19913;-68
2022/01/09 04:28:56;;;;;;;;;;;;;;;;;;5036758;28;19913;-69
2022/01/09 04:31:22;;;;;;;;;;;;;;;;;;5039039;28;19913;-69
2022/01/09 04:33:49;;;;;;;;;;;;;;;;;;5044479;28;19978;-68
2022/01/09 04:36:18;;;;;;;;;;;;;;;;;;5027434;28;19917;-68
2022/01/09 04:38:44;;;;;;;;;;;;;;;;;;5029306;28;19917;-69
2022/01/09 04:41:20;;;;;;;;;;;;;;;;;;5027213;28;19921;-68
2022/01/09 04:43:48;;;;;;;;;;;;;;;;;;5027220;28;20510;-68
2022/01/09 04:46:32;;;;;;;;;;;;;;;;;;5037052;28;19993;-68
2022/01/09 04:49:00;;;;;;;;;;;;;;;;;;5031845;28;20000;-68
2022/01/09 04:51:26;;;;;;;;;;;;;;;;;;5036282;28;19909;-68
2022/01/09 04:53:53;;;;;;;;;;;;;;;;;;5027730;28;19973;-69
2022/01/09 04:56:19;;;;;;;;;;;;;;;;;;5036539;28;20711;-69
2022/01/09 04:58:45;;;;;;;;;;;;;;;;;;5036806;28;19917;-69
2022/01/09 05:01:12;;;;;;;;;;;;;;;;;;5033821;28;19943;-68
2022/01/09 05:03:38;;;;;;;;;;;;;;;;;;5035713;28;19913;-69
2022/01/09 05:06:05;;;;;;;;;;;;;;;;;;5036126;28;19913;-68
2022/01/09 05:08:31;;;;;;;;;;;;;;;;;;5046378;28;19912;-68
2022/01/09 05:10:57;;;;;;;;;;;;;;;;;;5044641;28;19992;-69
2022/01/09 05:13:24;;;;;;;;;;;;;;;;;;5034421;28;20001;-68
2022/01/09 05:15:50;;;;;;;;;;;;;;;;;;5033243;28;19929;-68
2022/01/09 05:18:17;;;;;;;;;;;;;;;;;;5047245;28;19919;-68
2022/01/09 05:20:43;;;;;;;;;;;;;;;;;;5036010;28;19943;-69
2022/01/09 05:23:09;;;;;;;;;;;;;;;;;;5041369;28;19927;-69
2022/01/09 05:25:35;;;;;;;;;;;;;;;;;;5045407;28;19951;-70
2022/01/09 05:28:01;;;;;;;;;;;;;;;;;;5044452;28;19917;-68
2022/01/09 05:30:26;;;;;;;;;;;;;;;;;;5031708;28;19924;-68
2022/01/09 05:32:52;;;;;;;;;;;;;;;;;;5042055;28;20619;-69
2022/01/09 05:35:18;;;;;;;;;;;;;;;;;;5043876;28;19920;-68
2022/01/09 05:37:44;;;;;;;;;;;;;;;;;;5044761;28;19965;-68
2022/01/09 05:40:10;;;;;;;;;;;;;;;;;;5045760;28;19959;-69
2022/01/09 05:42:36;;;;;;;;;;;;;;;;;;5044267;28;20626;-68
2022/01/09 05:45:03;;;;;;;;;;;;;;;;;;5030981;28;19913;-68
2022/01/09 05:47:28;;;;;;;;;;;;;;;;;;5026872;28;19977;-68
2022/01/09 05:49:54;;;;;;;;;;;;;;;;;;5026618;28;19917;-68
2022/01/09 05:52:20;;;;;;;;;;;;;;;;;;5035567;28;19913;-68
2022/01/09 05:54:47;;;;;;;;;;;;;;;;;;5032580;28;19924;-68
2022/01/09 05:57:13;;;;;;;;;;;;;;;;;;5041416;28;20015;-68
2022/01/09 05:59:39;;;;;;;;;;;;;;;;;;5044853;28;20604;-69
2022/01/09 06:02:05;;;;;;;;;;;;;;;;;;5032018;28;19925;-68
2022/01/09 06:04:31;;;;;;;;;;;;;;;;;;5040635;28;20389;-68
2022/01/09 06:06:57;;;;;;;;;;;;;;;;;;5032122;28;19916;-68
2022/01/09 06:09:23;;;;;;;;;;;;;;;;;;5045240;28;19917;-68
2022/01/09 06:11:49;;;;;;;;;;;;;;;;;;5041933;28;19928;-68
2022/01/09 06:14:15;;;;;;;;;;;;;;;;;;5045356;28;20348;-68
2022/01/09 06:16:41;;;;;;;;;;;;;;;;;;5042019;28;20361;-68
2022/01/09 06:19:07;;;;;;;;;;;;;;;;;;5044373;28;20011;-69
2022/01/09 06:21:33;;;;;;;;;;;;;;;;;;5025987;28;20020;-69
2022/01/09 06:23:59;;;;;;;;;;;;;;;;;;5031343;28;20011;-68
2022/01/09 06:26:25;;;;;;;;;;;;;;;;;;5035656;28;19917;-68
2022/01/09 06:28:51;;;;;;;;;;;;;;;;;;5044669;28;19936;-68
2022/01/09 06:31:17;;;;;;;;;;;;;;;;;;5044846;28;20342;-68
2022/01/09 06:33:43;;;;;;;;;;;;;;;;;;5037847;28;19952;-68
2022/01/09 06:36:09;;;;;;;;;;;;;;;;;;5025450;28;20405;-71
2022/01/09 06:38:37;;;;;;;;;;;;;;;;;;5037286;28;20007;-71
2022/01/09 06:41:03;;;;;;;;;;;;;;;;;;5044784;28;20584;-69
2022/01/09 06:43:29;;;;;;;;;;;;;;;;;;5044524;28;20007;-71
2022/01/09 06:45:55;;;;;;;;;;;;;;;;;;5033663;28;19913;-70
2022/01/09 06:48:21;;;;;;;;;;;;;;;;;;5025445;28;19913;-70
2022/01/09 06:50:46;;;;;;;;;;;;;;;;;;5037382;28;19917;-70
2022/01/09 06:53:12;;;;;;;;;;;;;;;;;;5029613;28;20267;-72
2022/01/09 06:55:38;;;;;;;;;;;;;;;;;;5033218;28;19917;-70
2022/01/09 06:58:04;;;;;;;;;;;;;;;;;;5043635;28;19920;-71
2022/01/09 07:00:30;;;;;;;;;;;;;;;;;;5044521;28;20398;-70
2022/01/09 07:02:56;;;;;;;;;;;;;;;;;;5037594;28;19913;-70
2022/01/09 07:05:22;;;;;;;;;;;;;;;;;;5042062;28;19912;-70
2022/01/09 07:07:48;;;;;;;;;;;;;;;;;;5042804;28;19917;-71
2022/01/09 07:10:14;;;;;;;;;;;;;;;;;;5041742;28;19917;-71
2022/01/09 07:12:39;;;;;;;;;;;;;;;;;;5026970;28;20258;-70
2022/01/09 07:15:05;;;;;;;;;;;;;;;;;;5025524;28;20604;-70
2022/01/09 07:17:31;;;;;;;;;;;;;;;;;;5043693;28;20529;-70
2022/01/09 07:19:57;;;;;;;;;;;;;;;;;;5044094;28;19931;-70
2022/01/09 07:22:23;;;;;;;;;;;;;;;;;;5039290;28;19924;-71
2022/01/09 07:24:49;;;;;;;;;;;;;;;;;;5034829;28;19917;-70
2022/01/09 07:27:15;;;;;;;;;;;;;;;;;;5041533;28;20295;-70
2022/01/09 07:29:41;;;;;;;;;;;;;;;;;;5042320;28;19973;-71
2022/01/09 07:32:06;;;;;;;;;;;;;;;;;;5043713;28;20297;-71
2022/01/09 07:34:32;;;;;;;;;;;;;;;;;;5026892;28;20005;-68
2022/01/09 07:36:58;;;;;;;;;;;;;;;;;;5024575;28;19963;-69
2022/01/09 07:39:24;;;;;;;;;;;;;;;;;;5034057;28;19969;-68
2022/01/09 07:41:50;;;;;;;;;;;;;;;;;;5038828;28;19929;-68
2022/01/09 07:44:16;;;;;;;;;;;;;;;;;;5024700;28;19913;-68
2022/01/09 07:46:42;;;;;;;;;;;;;;;;;;5038952;28;20254;-70
2022/01/09 07:49:07;;;;;;;;;;;;;;;;;;5029737;28;19917;-70
2022/01/09 07:51:33;;;;;;;;;;;;;;;;;;5026519;28;19921;-71
2022/01/09 07:53:59;;;;;;;;;;;;;;;;;;5024301;28;19917;-70
2022/01/09 07:56:25;;;;;;;;;;;;;;;;;;5027060;28;19951;-69
2022/01/09 07:58:51;;;;;;;;;;;;;;;;;;5025263;28;20573;-69
2022/01/09 08:01:17;;;;;;;;;;;;;;;;;;5024315;28;19993;-71
2022/01/09 08:03:43;;;;;;;;;;;;;;;;;;5035308;28;19913;-71
2022/01/09 08:06:08;;;;;;;;;;;;;;;;;;5032017;28;19917;-71
2022/01/09 08:08:34;;;;;;;;;;;;;;;;;;5044456;28;20252;-70
2022/01/09 08:11:00;;;;;;;;;;;;;;;;;;5036832;28;20361;-70
2022/01/09 08:13:26;;;;;;;;;;;;;;;;;;5039536;28;19913;-70
2022/01/09 08:15:52;;;;;;;;;;;;;;;;;;5033061;28;19932;-70
2022/01/09 08:18:18;;;;;;;;;;;;;;;;;;5040822;28;19921;-70
2022/01/09 08:20:44;;;;;;;;;;;;;;;;;;5030656;28;20012;-71
2022/01/09 08:23:09;;;;;;;;;;;;;;;;;;5032848;28;19928;-70
2022/01/09 08:25:35;;;;;;;;;;;;;;;;;;5039054;28;20529;-70
2022/01/09 08:28:01;;;;;;;;;;;;;;;;;;5036596;28;19913;-70
2022/01/09 08:30:27;;;;;;;;;;;;;;;;;;5039573;28;19923;-70
2022/01/09 08:32:53;;;;;;;;;;;;;;;;;;5034041;28;19913;-70
2022/01/09 08:35:19;;;;;;;;;;;;;;;;;;5040634;28;20365;-70
2022/01/09 08:37:45;;;;;;;;;;;;;;;;;;5036434;28;19929;-70
2022/01/09 08:40:11;;;;;;;;;;;;;;;;;;5024254;28;19913;-70
2022/01/09 08:42:36;;;;;;;;;;;;;;;;;;5023874;28;20291;-70
2022/01/09 08:45:02;;;;;;;;;;;;;;;;;;5024953;28;19913;-70
2022/01/09 08:47:28;;;;;;;;;;;;;;;;;;5038287;28;20579;-70
2022/01/09 08:49:54;;;;;;;;;;;;;;;;;;5028308;28;20545;-70
2022/01/09 08:52:20;;;;;;;;;;;;;;;;;;5035646;28;19925;-70
2022/01/09 08:54:46;;;;;;;;;;;;;;;;;;5030840;28;19981;-70
2022/01/09 08:57:12;;;;;;;;;;;;;;;;;;5028176;28;19944;-71
2022/01/09 08:59:38;;;;;;;;;;;;;;;;;;5028539;28;19955;-70
2022/01/09 09:02:04;;;;;;;;;;;;;;;;;;5031519;28;19931;-70
2022/01/09 09:04:30;;;;;;;;;;;;;;;;;;5029424;28;19985;-71
2022/01/09 09:06:55;;;;;;;;;;;;;;;;;;5027434;28;19962;-70
2022/01/09 09:09:21;;;;;;;;;;;;;;;;;;5028294;28;19917;-70
2022/01/09 09:11:48;;;;;;;;;;;;;;;;;;5028624;28;19917;-70
2022/01/09 09:14:14;;;;;;;;;;;;;;;;;;5043654;28;19929;-70
2022/01/09 09:16:40;;;;;;;;;;;;;;;;;;5034376;28;19962;-71
2022/01/09 09:19:06;;;;;;;;;;;;;;;;;;5030002;28;19916;-70
2022/01/09 09:21:32;;;;;;;;;;;;;;;;;;5083009;27;19925;-70
2022/01/09 09:23:57;;;;;;;;;;;;;;;;;;5036821;28;20314;-70
2022/01/09 09:26:23;;;;;;;;;;;;;;;;;;5028396;28;19921;-70
2022/01/09 09:28:49;;;;;;;;;;;;;;;;;;5043225;28;19917;-71
2022/01/09 09:31:15;;;;;;;;;;;;;;;;;;5039345;28;19925;-70
2022/01/09 09:33:41;;;;;;;;;;;;;;;;;;5033536;28;19920;-70
2022/01/09 09:36:07;;;;;;;;;;;;;;;;;;5039121;28;20254;-71
2022/01/09 09:38:33;;;;;;;;;;;;;;;;;;5033593;28;19913;-70
2022/01/09 09:40:59;;;;;;;;;;;;;;;;;;5027428;28;20034;-71
2022/01/09 09:43:25;;;;;;;;;;;;;;;;;;5031225;28;19935;-71
2022/01/09 09:45:54;;;;;;;;;;;;;;;;;;5039697;28;20012;-70
2022/01/09 09:48:20;;;;;;;;;;;;;;;;;;5044954;28;19951;-71
2022/01/09 09:50:46;;;;;;;;;;;;;;;;;;5042000;28;20394;-71
2022/01/09 09:53:12;;;;;;;;;;;;;;;;;;5035099;28;20346;-70
2022/01/09 09:55:38;;;;;;;;;;;;;;;;;;5046090;28;19970;-71
2022/01/09 09:58:03;;;;;;;;;;;;;;;;;;5044890;28;20521;-70
2022/01/09 10:00:29;;;;;;;;;;;;;;;;;;5046215;28;19917;-71
2022/01/09 10:02:55;;;;;;;;;;;;;;;;;;5033026;28;19940;-70
2022/01/09 10:05:21;;;;;;;;;;;;;;;;;;5027285;28;19956;-70
2022/01/09 10:07:47;;;;;;;;;;;;;;;;;;5027104;28;19917;-70
2022/01/09 10:10:14;;;;;;;;;;;;;;;;;;5047320;28;19920;-70
2022/01/09 10:12:40;;;;;;;;;;;;;;;;;;5045783;28;19949;-70
2022/01/09 10:15:06;;;;;;;;;;;;;;;;;;5034809;28;20534;-70
2022/01/09 10:17:32;;;;;;;;;;;;;;;;;;5032452;28;20339;-71
2022/01/09 10:19:58;;;;;;;;;;;;;;;;;;5026411;28;19925;-71
2022/01/09 10:22:24;;;;;;;;;;;;;;;;;;5047187;28;19970;-71
2022/01/09 10:24:51;;;;;;;;;;;;;;;;;;5045308;28;21721;-71
2022/01/09 10:27:17;;;;;;;;;;;;;;;;;;5045443;28;20493;-71
2022/01/09 10:29:43;;;;;;;;;;;;;;;;;;5039325;28;19920;-71
2022/01/09 10:32:09;;;;;;;;;;;;;;;;;;5030462;28;20008;-73
2022/01/09 10:34:35;;;;;;;;;;;;;;;;;;5027111;28;20009;-71
2022/01/09 10:37:01;;;;;;;;;;;;;;;;;;5043157;28;20050;-71
2022/01/09 10:39:27;;;;;;;;;;;;;;;;;;5036039;28;20125;-71
2022/01/09 10:41:55;;;;;;;;;;;;;;;;;;5027125;28;20019;-71
2022/01/09 10:44:21;;;;;;;;;;;;;;;;;;5034893;28;19913;-71
2022/01/09 10:46:47;;;;;;;;;;;;;;;;;;5043568;28;20454;-71
2022/01/09 10:49:13;;;;;;;;;;;;;;;;;;5031377;28;19916;-71
2022/01/09 10:51:39;;;;;;;;;;;;;;;;;;5025694;28;20561;-71
2022/01/09 10:54:07;;;;;;;;;;;;;;;;;;5037434;28;20007;-71
2022/01/09 10:56:33;;;;;;;;;;;;;;;;;;5042437;28;19969;-71
2022/01/09 10:58:59;;;;;;;;;;;;;;;;;;5035739;28;19917;-71
2022/01/09 11:01:25;;;;;;;;;;;;;;;;;;5044890;28;20011;-71
2022/01/09 11:03:51;;;;;;;;;;;;;;;;;;5042146;28;20382;-71
2022/01/09 11:06:17;;;;;;;;;;;;;;;;;;5026291;28;19917;-71
2022/01/09 11:08:42;;;;;;;;;;;;;;;;;;5027342;28;19924;-71
2022/01/09 11:11:14;;;;;;;;;;;;;;;;;;5032298;28;19924;-71
2022/01/09 11:13:40;;;;;;;;;;;;;;;;;;5045993;28;19913;-71
2022/01/09 11:18:51;;;;;;;;;;;;;;;;;;5029971;28;19923;-71
2022/01/09 11:21:17;;;;;;;;;;;;;;;;;;5040270;28;19925;-71
2022/01/09 11:23:42;;;;;;;;;;;;;;;;;;5046133;28;19909;-70
2022/01/09 11:26:08;;;;;;;;;;;;;;;;;;5042877;28;20473;-71
2022/01/09 11:28:36;;;;;;;;;;;;;;;;;;5029600;28;20020;-71
2022/01/09 11:31:02;;;;;;;;;;;;;;;;;;5032248;28;19920;-71
2022/01/09 11:33:28;;;;;;;;;;;;;;;;;;5025630;28;20386;-71
2022/01/09 11:35:54;;;;;;;;;;;;;;;;;;5026702;28;19938;-71
2022/01/09 11:38:20;;;;;;;;;;;;;;;;;;5045056;28;20521;-71
2022/01/09 11:40:46;;;;;;;;;;;;;;;;;;5044261;28;19931;-71
2022/01/09 11:43:15;;;;;;;;;;;;;;;;;;5039346;28;19913;-72
2022/01/09 11:45:41;;;;;;;;;;;;;;;;;;5044777;28;19981;-70
2022/01/09 11:48:07;;;;;;;;;;;;;;;;;;5030116;28;20334;-70
2022/01/09 11:50:33;;;;;;;;;;;;;;;;;;5035671;28;19958;-70
2022/01/09 11:52:59;;;;;;;;;;;;;;;;;;5043533;28;19940;-70
2022/01/09 11:55:25;;;;;;;;;;;;;;;;;;5026006;28;20569;-72
2022/01/09 11:57:52;;;;;;;;;;;;;;;;;;5032318;28;19928;-72
2022/01/09 12:00:18;;;;;;;;;;;;;;;;;;5029685;28;20015;-70
2022/01/09 12:02:44;;;;;;;;;;;;;;;;;;5045902;28;20058;-71
2022/01/09 12:05:10;;;;;;;;;;;;;;;;;;5046044;28;19932;-71
2022/01/09 12:07:36;;;;;;;;;;;;;;;;;;5038368;28;19917;-70
2022/01/09 12:10:02;;;;;;;;;;;;;;;;;;5031595;28;20317;-70
2022/01/09 12:12:28;;;;;;;;;;;;;;;;;;5027440;28;19913;-71
2022/01/09 12:14:54;;;;;;;;;;;;;;;;;;5034726;28;19951;-71
2022/01/09 12:17:20;;;;;;;;;;;;;;;;;;5029172;28;19917;-70
2022/01/09 12:19:46;;;;;;;;;;;;;;;;;;5026783;28;19970;-71
2022/01/09 12:22:12;;;;;;;;;;;;;;;;;;5024595;28;20015;-71
2022/01/09 12:24:38;;;;;;;;;;;;;;;;;;5034210;28;19921;-70
2022/01/09 12:27:04;;;;;;;;;;;;;;;;;;5035865;28;20301;-71
2022/01/09 12:29:30;;;;;;;;;;;;;;;;;;5031384;28;20000;-70
2022/01/09 12:31:56;;;;;;;;;;;;;;;;;;5028070;28;20472;-70
2022/01/09 12:34:21;;;;;;;;;;;;;;;;;;5032127;28;19939;-71
2022/01/09 12:36:50;;;;;;;;;;;;;;;;;;5049163;28;19920;-70
2022/01/09 12:39:18;;;;;;;;;;;;;;;;;;5049016;28;19913;-70
2022/01/09 12:41:44;;;;;;;;;;;;;;;;;;5038330;28;19931;-73
2022/01/09 12:44:10;;;;;;;;;;;;;;;;;;5028729;28;19973;-71
2022/01/09 12:46:38;;;;;;;;;;;;;;;;;;5041498;28;19912;-70
2022/01/09 12:49:05;;;;;;;;;;;;;;;;;;5031899;28;19921;-71
2022/01/09 12:51:31;;;;;;;;;;;;;;;;;;5041266;28;19913;-71
2022/01/09 12:53:57;;;;;;;;;;;;;;;;;;5033692;28;19921;-71
2022/01/09 12:56:23;;;;;;;;;;;;;;;;;;5030719;28;19913;-75
2022/01/09 12:58:49;;;;;;;;;;;;;;;;;;5038522;28;20004;-70
2022/01/09 13:01:19;;;;;;;;;;;;;;;;;;5029696;28;20298;-71
2022/01/09 13:03:45;;;;;;;;;;;;;;;;;;5028781;28;19917;-71
2022/01/09 13:06:10;;;;;;;;;;;;;;;;;;5028192;28;20424;-71
2022/01/09 13:08:38;;;;;;;;;;;;;;;;;;5029022;28;19921;-70
2022/01/09 13:11:04;;;;;;;;;;;;;;;;;;5027998;28;19909;-70
2022/01/09 13:13:30;;;;;;;;;;;;;;;;;;5028155;28;19917;-71
2022/01/09 13:15:55;;;;;;;;;;;;;;;;;;5028091;28;20367;-71
2022/01/09 13:18:21;;;;;;;;;;;;;;;;;;5028297;28;19917;-71
2022/01/09 13:20:47;;;;;;;;;;;;;;;;;;5027470;28;20191;-71
2022/01/09 13:23:13;;;;;;;;;;;;;;;;;;5028568;28;19909;-71
2022/01/09 13:25:39;;;;;;;;;;;;;;;;;;5028207;28;20680;-70
2022/01/09 13:28:05;;;;;;;;;;;;;;;;;;5028101;28;19949;-71
2022/01/09 13:30:31;;;;;;;;;;;;;;;;;;5027423;28;20121;-70
2022/01/09 13:32:57;;;;;;;;;;;;;;;;;;5027681;28;19909;-71
2022/01/09 13:35:22;;;;;;;;;;;;;;;;;;5027745;28;19916;-71
2022/01/09 13:37:48;;;;;;;;;;;;;;;;;;5027441;28;19917;-70
2022/01/09 13:40:14;;;;;;;;;;;;;;;;;;5027361;28;19909;-70
2022/01/09 13:42:40;;;;;;;;;;;;;;;;;;5028247;28;20328;-71
2022/01/09 13:45:06;;;;;;;;;;;;;;;;;;5027445;28;20204;-71
2022/01/09 13:47:32;;;;;;;;;;;;;;;;;;5027754;28;20298;-71
2022/01/09 13:49:59;;;;;;;;;;;;;;;;;;5028225;28;20024;-71
2022/01/09 13:52:25;;;;;;;;;;;;;;;;;;5027656;28;20011;-71
2022/01/09 13:54:51;;;;;;;;;;;;;;;;;;5027213;28;20007;-70
2022/01/09 13:57:17;;;;;;;;;;;;;;;;;;5113173;27;19969;-71
2022/01/09 13:59:43;;;;;;;;;;;;;;;;;;5034288;28;20259;-71
2022/01/09 14:02:09;;;;;;;;;;;;;;;;;;5046938;28;19921;-70
2022/01/09 14:04:35;;;;;;;;;;;;;;;;;;5047381;28;19909;-71
2022/01/09 14:07:01;;;;;;;;;;;;;;;;;;5047137;28;19909;-71
2022/01/09 14:09:26;;;;;;;;;;;;;;;;;;5046517;28;20164;-70
2022/01/09 14:11:52;;;;;;;;;;;;;;;;;;5047233;28;19909;-70
2022/01/09 14:14:18;;;;;;;;;;;;;;;;;;5034452;28;19932;-70
2022/01/09 14:16:44;;;;;;;;;;;;;;;;;;5027407;28;20236;-70
2022/01/09 14:19:10;;;;;;;;;;;;;;;;;;5028017;28;19914;-71
2022/01/09 14:21:36;;;;;;;;;;;;;;;;;;5027144;28;20287;-70
2022/01/09 14:24:02;;;;;;;;;;;;;;;;;;5026739;28;19916;-72
2022/01/09 14:26:27;;;;;;;;;;;;;;;;;;5026604;28;19913;-70
2022/01/09 14:28:53;;;;;;;;;;;;;;;;;;5027174;28;20204;-70
2022/01/09 14:31:19;;;;;;;;;;;;;;;;;;5026780;28;20020;-70
2022/01/09 14:33:45;;;;;;;;;;;;;;;;;;5026503;28;19920;-74
2022/01/09 14:36:12;;;;;;;;;;;;;;;;;;5027773;28;20350;-71
2022/01/09 14:38:38;;;;;;;;;;;;;;;;;;5036240;28;19971;-71
2022/01/09 14:41:04;;;;;;;;;;;;;;;;;;5033945;28;20327;-70
2022/01/09 14:43:29;;;;;;;;;;;;;;;;;;5027944;28;19917;-70
2022/01/09 14:45:55;;;;;;;;;;;;;;;;;;5031511;28;19921;-70
2022/01/09 14:48:21;;;;;;;;;;;;;;;;;;5030820;28;19917;-70
2022/01/09 14:50:47;;;;;;;;;;;;;;;;;;5028992;28;20399;-70
2022/01/09 14:53:13;;;;;;;;;;;;;;;;;;5035066;28;19924;-71
2022/01/09 14:55:39;;;;;;;;;;;;;;;;;;5030689;28;19913;-70
2022/01/09 14:58:05;;;;;;;;;;;;;;;;;;5044115;28;19909;-71
2022/01/09 15:00:31;;;;;;;;;;;;;;;;;;5026360;28;19920;-70
2022/01/09 15:02:58;;;;;;;;;;;;;;;;;;5027245;28;19917;-71
2022/01/09 15:05:24;;;;;;;;;;;;;;;;;;5033167;28;20365;-70
2022/01/09 15:07:49;;;;;;;;;;;;;;;;;;5035179;28;19925;-70
2022/01/09 15:10:15;;;;;;;;;;;;;;;;;;5034469;28;19913;-71
2022/01/09 15:12:41;;;;;;;;;;;;;;;;;;5034402;28;19923;-70
2022/01/09 15:15:07;;;;;;;;;;;;;;;;;;5029300;28;19925;-70
2022/01/09 15:17:33;;;;;;;;;;;;;;;;;;5035253;28;19939;-70
2022/01/09 15:20:00;;;;;;;;;;;;;;;;;;5029465;28;19912;-70
2022/01/09 15:22:26;;;;;;;;;;;;;;;;;;5027222;28;19928;-70
2022/01/09 15:24:52;;;;;;;;;;;;;;;;;;5029449;28;19965;-70
2022/01/09 15:27:18;;;;;;;;;;;;;;;;;;5032999;28;19913;-71
2022/01/09 15:29:44;;;;;;;;;;;;;;;;;;5028585;28;20275;-70
2022/01/09 15:32:10;;;;;;;;;;;;;;;;;;5043748;28;19909;-70
2022/01/09 15:34:36;;;;;;;;;;;;;;;;;;5039809;28;19909;-70
2022/01/09 15:37:02;;;;;;;;;;;;;;;;;;5024894;28;20246;-71
2022/01/09 15:39:28;;;;;;;;;;;;;;;;;;5026065;28;19917;-71
2022/01/09 15:41:53;;;;;;;;;;;;;;;;;;5034649;28;19924;-70
2022/01/09 15:44:19;;;;;;;;;;;;;;;;;;5042655;28;19973;-71
2022/01/09 15:46:45;;;;;;;;;;;;;;;;;;5036943;28;20430;-71
2022/01/09 15:49:11;;;;;;;;;;;;;;;;;;5025000;28;19934;-70
2022/01/09 15:51:38;;;;;;;;;;;;;;;;;;5024710;28;20395;-70
2022/01/09 15:54:04;;;;;;;;;;;;;;;;;;5042253;28;20429;-70
2022/01/09 15:56:30;;;;;;;;;;;;;;;;;;5037756;28;19923;-70
2022/01/09 15:58:57;;;;;;;;;;;;;;;;;;5028636;28;19963;-70
2022/01/09 16:01:23;;;;;;;;;;;;;;;;;;5031280;28;19949;-71
2022/01/09 16:03:49;;;;;;;;;;;;;;;;;;5024916;28;19920;-70
2022/01/09 16:06:15;;;;;;;;;;;;;;;;;;5024872;28;19909;-70
2022/01/09 16:08:41;;;;;;;;;;;;;;;;;;5024460;28;19916;-71
2022/01/09 16:11:07;;;;;;;;;;;;;;;;;;5031915;28;20023;-74
2022/01/09 16:13:36;;;;;;;;;;;;;;;;;;5028078;28;19913;-71
2022/01/09 16:16:02;;;;;;;;;;;;;;;;;;5036102;28;19972;-72
2022/01/09 16:18:28;;;;;;;;;;;;;;;;;;5027658;28;19956;-71
2022/01/09 16:20:54;;;;;;;;;;;;;;;;;;5039067;28;19936;-71
2022/01/09 16:23:20;;;;;;;;;;;;;;;;;;5039120;28;19925;-70
2022/01/09 16:25:46;;;;;;;;;;;;;;;;;;5026948;28;20389;-71
2022/01/09 16:28:12;;;;;;;;;;;;;;;;;;5023603;28;20152;-71
2022/01/09 16:30:38;;;;;;;;;;;;;;;;;;5027650;28;20706;-71
2022/01/09 16:33:06;;;;;;;;;;;;;;;;;;5024595;28;20429;-71
2022/01/09 16:35:32;;;;;;;;;;;;;;;;;;5024611;28;19944;-71
2022/01/09 16:37:59;;;;;;;;;;;;;;;;;;5023496;28;20291;-71
2022/01/09 16:40:27;;;;;;;;;;;;;;;;;;5024094;28;19941;-71
2022/01/09 16:42:53;;;;;;;;;;;;;;;;;;5030320;28;19925;-71
2022/01/09 16:45:19;;;;;;;;;;;;;;;;;;5023921;28;19973;-71
2022/01/09 16:47:45;;;;;;;;;;;;;;;;;;5026003;28;19975;-70
2022/01/09 16:50:13;;;;;;;;;;;;;;;;;;5032683;28;20351;-70